createdAt,value
2023-04-09T06:43:15.604Z,1020.09
2023-04-09T06:43:26.881Z,1020.07
2023-04-09T06:43:36.803Z,1020.04
2023-04-09T06:43:46.892Z,1020.03
2023-04-09T06:43:56.915Z,1020.05
2023-04-09T06:44:07.073Z,1019.99
2023-04-09T06:44:17.110Z,1020.05
2023-04-09T06:44:27.201Z,1020.02
2023-04-09T06:44:37.504Z,1020.06
2023-04-09T06:44:47.498Z,1020.07
2023-04-09T06:44:57.630Z,1020.03
2023-04-09T06:45:07.891Z,1020.08
2023-04-09T06:45:17.830Z,1020.06
2023-04-09T06:45:27.945Z,1020.03
2023-04-09T06:45:40.411Z,1020.09
2023-04-09T06:45:48.309Z,1020.07
2023-04-09T06:45:58.372Z,1020.06
2023-04-09T06:46:08.502Z,1020.04
2023-04-09T06:46:18.712Z,1020.08
2023-04-09T06:46:28.760Z,1020.06
2023-04-09T06:46:38.938Z,1020.08
2023-04-09T06:46:49.156Z,1020.06
2023-04-09T06:46:59.143Z,1020.05
2023-04-09T06:47:09.241Z,1020.10
2023-04-09T06:47:19.269Z,1020.11
2023-04-09T06:47:29.555Z,1020.04
2023-04-09T06:47:39.684Z,1020.02
2023-04-09T06:47:49.762Z,1020.04
2023-04-09T06:47:59.885Z,1020.08
2023-04-09T06:48:09.927Z,1020.02
2023-04-09T06:48:20.166Z,1020.06
2023-04-09T06:48:30.237Z,1020.06
2023-04-09T06:48:40.383Z,1020.04
2023-04-09T06:48:50.429Z,1020.04
2023-04-09T06:49:00.623Z,1020.04
2023-04-09T06:49:10.691Z,1020.05
2023-04-09T06:49:20.868Z,1020.07
2023-04-09T06:49:30.988Z,1020.05
2023-04-09T06:49:41.176Z,1020.10
2023-04-09T06:49:51.209Z,1020.04
2023-04-09T06:50:01.337Z,1020.08
2023-04-09T06:50:11.467Z,1020.08
2023-04-09T06:50:21.674Z,1020.06
2023-04-09T06:50:31.704Z,1020.08
2023-04-09T06:50:41.998Z,1020.09
2023-04-09T06:50:52.046Z,1020.05
2023-04-09T06:51:02.202Z,1020.09
2023-04-09T06:51:12.317Z,1020.09
2023-04-09T06:51:22.471Z,1020.04
2023-04-09T06:51:32.507Z,1020.06
2023-04-09T06:51:42.719Z,1020.01
2023-04-09T06:51:52.899Z,1020.04
2023-04-09T06:52:03.064Z,1020.01
2023-04-09T06:52:13.069Z,1020.05
2023-04-09T06:52:23.288Z,1020.09
2023-04-09T06:52:33.440Z,1020.04
2023-04-09T06:52:43.515Z,1020.06
2023-04-09T06:52:53.674Z,1020.06
2023-04-09T06:53:04.527Z,1020.09
2023-04-09T06:53:13.921Z,1020.05
2023-04-09T06:53:24.072Z,1020.04
2023-04-09T06:53:34.220Z,1020.01
2023-04-09T06:53:44.377Z,1020.09
2023-04-09T06:53:54.709Z,1020.06
2023-04-09T06:54:04.638Z,1020.06
2023-04-09T06:54:14.868Z,1020.06
2023-04-09T06:54:24.952Z,1020.05
2023-04-09T06:54:34.924Z,1020.08
2023-04-09T06:54:45.221Z,1020.07
2023-04-09T06:54:55.382Z,1020.07
2023-04-09T06:55:05.475Z,1020.05
2023-04-09T06:55:15.513Z,1020.09
2023-04-09T06:55:25.674Z,1020.02
2023-04-09T06:55:36.449Z,1020.06
2023-04-09T06:55:45.952Z,1020.03
2023-04-09T06:55:57.005Z,1020.07
2023-04-09T06:56:06.130Z,1020.06
2023-04-09T06:56:16.231Z,1020.03
2023-04-09T06:56:26.392Z,1020.06
2023-04-09T06:56:46.721Z,1020.05
2023-04-09T06:56:56.816Z,1020.05
2023-04-09T06:57:06.971Z,1020.01
2023-04-09T06:57:16.976Z,1020.01
2023-04-09T06:57:27.167Z,1020.05
2023-04-09T06:57:37.278Z,1020.05
2023-04-09T06:57:47.609Z,1020.05
2023-04-09T06:57:57.664Z,1020.07
2023-04-09T06:58:07.857Z,1020.05
2023-04-09T06:58:17.739Z,1020.07
2023-04-09T06:58:27.970Z,1020.03
2023-04-09T06:58:38.092Z,1020.06
2023-04-09T06:58:48.219Z,1020.06
2023-04-09T06:58:58.501Z,1020.07
2023-04-09T06:59:08.516Z,1020.06
2023-04-09T06:59:18.640Z,1020.05
2023-04-09T06:59:28.908Z,1020.06
2023-04-09T06:59:38.874Z,1020.07
2023-04-09T06:59:49.051Z,1020.11
2023-04-09T06:59:59.284Z,1020.06
2023-04-09T07:00:09.372Z,1020.07
2023-04-09T07:00:19.423Z,1020.07
2023-04-09T07:00:29.590Z,1020.09
2023-04-09T07:00:39.710Z,1020.06
2023-04-09T07:00:49.805Z,1020.09
2023-04-09T07:00:59.929Z,1020.12
2023-04-09T07:01:10.170Z,1020.12
2023-04-09T07:01:21.145Z,1020.13
2023-04-09T07:01:30.530Z,1020.13
2023-04-09T07:01:40.649Z,1020.13
2023-04-09T07:01:51.386Z,1020.06
2023-04-09T07:02:00.576Z,1020.07
2023-04-09T07:02:10.702Z,1020.09
2023-04-09T07:02:31.022Z,1020.07
2023-04-09T07:02:40.959Z,1020.12
2023-04-09T07:02:51.145Z,1020.12
2023-04-09T07:03:01.257Z,1020.12
2023-04-09T07:03:11.404Z,1020.11
2023-04-09T07:03:21.430Z,1020.11
2023-04-09T07:03:31.957Z,1020.14
2023-04-09T07:03:41.715Z,1020.10
2023-04-09T07:03:52.032Z,1020.11
2023-04-09T07:04:02.484Z,1020.10
2023-04-09T07:04:12.114Z,1020.13
2023-04-09T07:04:22.122Z,1020.10
2023-04-09T07:04:32.403Z,1020.09
2023-04-09T07:04:42.420Z,1020.09
2023-04-09T07:04:52.582Z,1020.09
2023-04-09T07:05:02.582Z,1020.10
2023-04-09T07:05:12.994Z,1020.10
2023-04-09T07:05:22.867Z,1020.12
2023-04-09T07:05:33.048Z,1020.14
2023-04-09T07:05:43.156Z,1020.15
2023-04-09T07:05:53.851Z,1020.12
2023-04-09T07:06:04.270Z,1020.10
2023-04-09T07:06:13.515Z,1020.15
2023-04-09T07:06:23.609Z,1020.12
2023-04-09T07:06:33.822Z,1020.10
2023-04-09T07:06:43.857Z,1020.12
2023-04-09T07:06:54.027Z,1020.12
2023-04-09T07:07:14.238Z,1020.12
2023-04-09T07:07:25.625Z,1020.11
2023-04-09T07:07:34.536Z,1020.13
2023-04-09T07:07:44.564Z,1020.15
2023-04-09T07:07:54.640Z,1020.20
2023-04-09T07:08:05.133Z,1020.15
2023-04-09T07:08:14.957Z,1020.12
2023-04-09T07:08:25.070Z,1020.09
2023-04-09T07:08:35.276Z,1020.12
2023-04-09T07:08:45.290Z,1020.14
2023-04-09T07:08:55.647Z,1020.10
2023-04-09T07:09:05.502Z,1020.09
2023-04-09T07:09:15.635Z,1020.09
2023-04-09T07:09:25.717Z,1020.07
2023-04-09T07:09:35.888Z,1020.10
2023-04-09T07:09:46.127Z,1020.11
2023-04-09T07:09:56.331Z,1020.08
2023-04-09T07:10:06.339Z,1020.10
2023-04-09T07:10:16.414Z,1020.08
2023-04-09T07:10:26.617Z,1020.09
2023-04-09T07:10:36.780Z,1020.12
2023-04-09T07:10:46.889Z,1020.10
2023-04-09T07:10:57.041Z,1020.09
2023-04-09T07:11:07.243Z,1020.05
2023-04-09T07:11:17.224Z,1020.12
2023-04-09T07:11:27.455Z,1020.11
2023-04-09T07:11:37.512Z,1020.10
2023-04-09T07:11:47.665Z,1020.10
2023-04-09T07:11:57.858Z,1020.08
2023-04-09T07:12:07.913Z,1020.06
2023-04-09T07:12:18.045Z,1020.07
2023-04-09T07:12:28.155Z,1020.05
2023-04-09T07:16:57.171Z,1020.16
2023-04-09T07:17:08.210Z,1020.16
2023-04-09T07:17:18.029Z,1020.18
2023-04-09T07:17:28.375Z,1020.17
2023-04-09T07:17:38.445Z,1020.14
2023-04-09T07:17:48.722Z,1020.15
2023-04-09T07:17:58.636Z,1020.20
2023-04-09T07:18:09.308Z,1020.21
2023-04-09T07:18:19.054Z,1020.23
2023-04-09T07:18:29.207Z,1020.21
2023-04-09T07:18:39.276Z,1020.22
2023-04-09T07:18:49.364Z,1020.21
2023-04-09T07:18:59.595Z,1020.20
2023-04-09T07:19:09.959Z,1020.21
2023-04-09T07:19:19.749Z,1020.17
2023-04-09T07:19:29.850Z,1020.20
2023-04-09T07:19:39.987Z,1020.15
2023-04-09T07:19:50.087Z,1020.07
2023-04-09T07:20:00.176Z,1020.11
2023-04-09T07:20:10.431Z,1020.07
2023-04-09T07:20:20.591Z,1020.06
2023-04-09T07:20:30.725Z,1020.05
2023-04-09T07:20:40.746Z,1020.06
2023-04-09T07:20:50.924Z,1020.07
2023-04-09T07:21:00.984Z,1020.08
2023-04-09T07:21:11.131Z,1020.04
2023-04-09T07:21:21.316Z,1020.05
2023-04-09T07:21:31.510Z,1019.99
2023-04-09T07:21:41.481Z,1020.00
2023-04-09T07:21:51.623Z,1020.02
2023-04-09T07:22:01.755Z,1020.02
2023-04-09T07:22:11.935Z,1019.98
2023-04-09T07:22:22.080Z,1020.01
2023-04-09T07:22:32.270Z,1019.97
2023-04-09T07:22:42.349Z,1019.97
2023-04-09T07:22:52.504Z,1019.97
2023-04-09T07:23:02.512Z,1019.92
2023-04-09T07:23:12.756Z,1019.95
2023-04-09T07:23:22.853Z,1019.92
2023-04-09T07:23:32.921Z,1019.89
2023-04-09T07:23:43.082Z,1019.86
2023-04-09T07:23:53.412Z,1019.85
2023-04-09T07:24:03.221Z,1019.84
2023-04-09T07:24:13.361Z,1019.85
2023-04-09T07:24:23.482Z,1019.83
2023-04-09T07:24:33.622Z,1019.79
2023-04-09T07:24:43.748Z,1019.81
2023-04-09T07:24:54.063Z,1019.86
2023-04-09T07:25:03.950Z,1019.87
2023-04-09T07:25:14.154Z,1019.84
2023-04-09T07:25:24.841Z,1019.84
2023-04-09T07:25:34.416Z,1019.84
2023-04-09T07:25:44.581Z,1019.82
2023-04-09T07:25:55.284Z,1019.85
2023-04-09T07:26:04.823Z,1019.85
2023-04-09T07:26:14.864Z,1019.87
2023-04-09T07:26:25.004Z,1019.86
2023-04-09T07:26:35.193Z,1019.85
2023-04-09T07:26:45.353Z,1019.87
2023-04-09T07:26:55.577Z,1019.81
2023-04-09T07:27:05.615Z,1019.82
2023-04-09T07:27:15.640Z,1019.84
2023-04-09T07:27:25.843Z,1019.84
2023-04-09T07:27:35.899Z,1019.89
2023-04-09T07:27:46.046Z,1019.86
2023-04-09T07:27:56.268Z,1019.86
2023-04-09T07:28:06.298Z,1019.89
2023-04-09T07:28:16.497Z,1019.85
2023-04-09T07:28:26.687Z,1019.84
2023-04-09T07:28:36.754Z,1019.84
2023-04-09T07:28:46.859Z,1019.85
2023-04-09T07:28:57.055Z,1019.85
2023-04-09T07:29:07.195Z,1019.83
2023-04-09T07:29:17.200Z,1019.83
2023-04-09T07:29:27.314Z,1019.85
2023-04-09T07:29:37.589Z,1019.82
2023-04-09T07:29:47.585Z,1019.85
2023-04-09T07:29:57.767Z,1019.84
2023-04-09T07:30:07.925Z,1019.81
2023-04-09T07:30:17.970Z,1019.82
2023-04-09T07:30:28.113Z,1019.78
2023-04-09T07:30:38.244Z,1019.79
2023-04-09T07:30:49.338Z,1019.82
2023-04-09T07:30:58.427Z,1019.82
2023-04-09T07:31:08.617Z,1019.84
2023-04-09T07:31:18.786Z,1019.84
2023-04-09T07:31:28.933Z,1019.89
2023-04-09T07:31:39.188Z,1019.95
2023-04-09T07:31:59.462Z,1019.96
2023-04-09T07:32:09.467Z,1019.95
2023-04-09T07:32:19.594Z,1019.99
2023-04-09T07:32:29.799Z,1020.01
2023-04-09T07:32:39.878Z,1020.01
2023-04-09T07:32:50.000Z,1020.02
2023-04-09T07:33:00.333Z,1020.05
2023-04-09T07:33:10.163Z,1020.08
2023-04-09T07:33:20.295Z,1020.09
2023-04-09T07:33:30.439Z,1020.08
2023-04-09T07:33:40.548Z,1020.15
2023-04-09T07:33:50.786Z,1020.16
2023-04-09T07:34:00.776Z,1020.21
2023-04-09T07:34:10.804Z,1020.20
2023-04-09T07:34:21.007Z,1020.21
2023-04-09T07:34:31.086Z,1020.21
2023-04-09T07:34:41.252Z,1020.23
2023-04-09T07:34:51.346Z,1020.25
2023-04-09T07:35:01.557Z,1020.30
2023-04-09T07:35:11.695Z,1020.26
2023-04-09T07:35:21.783Z,1020.27
2023-04-09T07:35:31.781Z,1020.27
2023-04-09T07:35:42.087Z,1020.24
2023-04-09T07:35:52.915Z,1020.26
2023-04-09T07:36:02.264Z,1020.28
2023-04-09T07:36:12.349Z,1020.26
2023-04-09T07:36:22.350Z,1020.29
2023-04-09T07:36:32.581Z,1020.24
2023-04-09T07:36:42.737Z,1020.26
2023-04-09T07:36:52.606Z,1020.29
2023-04-09T07:37:02.818Z,1020.26
2023-04-09T07:37:12.946Z,1020.29
2023-04-09T07:37:23.125Z,1020.27
2023-04-09T07:37:33.128Z,1020.26
2023-04-09T07:37:43.234Z,1020.29
2023-04-09T07:37:53.251Z,1020.30
2023-04-09T07:38:03.475Z,1020.30
2023-04-09T07:38:13.540Z,1020.30
2023-04-09T07:38:23.768Z,1020.30
2023-04-09T07:38:33.878Z,1020.31
2023-04-09T07:38:44.074Z,1020.30
2023-04-09T07:38:54.253Z,1020.32
2023-04-09T07:39:04.265Z,1020.33
2023-04-09T07:39:14.260Z,1020.33
2023-04-09T07:39:24.426Z,1020.33
2023-04-09T07:39:34.493Z,1020.30
2023-04-09T07:39:44.724Z,1020.29
2023-04-09T07:39:54.845Z,1020.31
2023-04-09T07:40:04.944Z,1020.32
2023-04-09T07:40:15.102Z,1020.32
2023-04-09T07:40:25.208Z,1020.33
2023-04-09T07:40:35.355Z,1020.26
2023-04-09T07:40:45.406Z,1020.32
2023-04-09T07:40:55.484Z,1020.31
2023-04-09T07:41:05.723Z,1020.28
2023-04-09T07:41:16.762Z,1020.31
2023-04-09T07:41:25.949Z,1020.34
2023-04-09T07:41:36.004Z,1020.38
2023-04-09T07:41:46.287Z,1020.37
2023-04-09T07:41:56.443Z,1020.37
2023-04-09T07:42:06.476Z,1020.35
2023-04-09T07:42:26.741Z,1020.34
2023-04-09T07:42:36.873Z,1020.30
2023-04-09T07:42:47.066Z,1020.34
2023-04-09T07:42:57.180Z,1020.33
2023-04-09T07:43:07.503Z,1020.31
2023-04-09T07:43:17.367Z,1020.30
2023-04-09T07:43:27.476Z,1020.35
2023-04-09T07:43:37.607Z,1020.29
2023-04-09T07:43:47.831Z,1020.34
2023-04-09T07:43:57.984Z,1020.34
2023-04-09T07:44:08.195Z,1020.30
2023-04-09T07:44:19.707Z,1020.36
2023-04-09T07:44:28.404Z,1020.35
2023-04-09T07:44:38.398Z,1020.34
2023-04-09T07:44:48.539Z,1020.39
2023-04-09T07:44:58.660Z,1020.40
2023-04-09T07:45:08.910Z,1020.36
2023-04-09T07:45:29.030Z,1020.40
2023-04-09T07:45:39.071Z,1020.39
2023-04-09T07:45:49.279Z,1020.39
2023-04-09T07:46:00.220Z,1020.35
2023-04-09T07:46:09.547Z,1020.38
2023-04-09T07:46:19.728Z,1020.36
2023-04-09T07:46:29.847Z,1020.35
2023-04-09T07:46:39.904Z,1020.37
2023-04-09T07:46:50.175Z,1020.36
2023-04-09T07:47:10.234Z,1020.37
2023-04-09T07:47:20.822Z,1020.42
2023-04-09T07:47:30.544Z,1020.36
2023-04-09T07:47:40.693Z,1020.39
2023-04-09T07:47:50.774Z,1020.35
2023-04-09T07:48:00.903Z,1020.41
2023-04-09T07:48:10.904Z,1020.36
2023-04-09T07:48:21.151Z,1020.34
2023-04-09T07:48:31.254Z,1020.34
2023-04-09T07:48:41.238Z,1020.38
2023-04-09T07:48:51.696Z,1020.33
2023-04-09T07:49:01.465Z,1020.35
2023-04-09T07:49:11.597Z,1020.30
2023-04-09T07:49:21.674Z,1020.31
2023-04-09T07:49:31.810Z,1020.33
2023-04-09T07:49:42.016Z,1020.34
2023-04-09T07:49:52.036Z,1020.35
2023-04-09T07:50:02.347Z,1020.30
2023-04-09T07:50:12.298Z,1020.31
2023-04-09T07:50:22.561Z,1020.34
2023-04-09T07:50:32.600Z,1020.36
2023-04-09T07:50:42.673Z,1020.39
2023-04-09T07:50:52.849Z,1020.40
2023-04-09T07:51:03.074Z,1020.39
2023-04-09T07:51:13.173Z,1020.36
2023-04-09T07:51:23.297Z,1020.40
2023-04-09T07:51:33.367Z,1020.41
2023-04-09T07:51:43.573Z,1020.38
2023-04-09T07:51:53.608Z,1020.39
2023-04-09T07:52:03.804Z,1020.43
2023-04-09T07:52:13.776Z,1020.45
2023-04-09T07:52:24.080Z,1020.42
2023-04-09T07:52:34.074Z,1020.46
2023-04-09T07:52:44.337Z,1020.47
2023-04-09T07:52:54.335Z,1020.44
2023-04-09T07:53:04.439Z,1020.47
2023-04-09T07:53:14.525Z,1020.49
2023-04-09T07:53:24.865Z,1020.51
2023-04-09T07:53:34.915Z,1020.46
2023-04-09T07:53:45.122Z,1020.44
